Time;durP1;ratioP1;P1;durP2;ratioP2;P2;SDS_P1;SDS_P2;PMS_P1;PMS_P2;Temp;Humidity;BMP_temperature;BMP_pressure;BME280_temperature;BME280_humidity;BME280_pressure;Samples;Min_cycle;Max_cycle;Signal;HPM_P1;HPM_P2
2022/05/22 00:00:26;;;;;;;12.35;5.65;;;18.40;99.90;;;;;;5036350;28;20503;-76
2022/05/22 00:02:54;;;;;;;9.00;5.93;;;18.40;99.90;;;;;;5033987;28;20056;-75
2022/05/22 00:05:24;;;;;;;10.65;6.25;;;18.40;99.90;;;;;;5016466;28;20038;-76
2022/05/22 00:07:52;;;;;;;13.65;6.50;;;18.30;99.90;;;;;;5018762;28;20048;-78
2022/05/22 00:10:20;;;;;;;10.68;7.00;;;18.50;99.90;;;;;;5021616;28;20038;-77
2022/05/22 00:12:47;;;;;;;7.78;4.85;;;18.50;99.90;;;;;;5018627;28;20048;-77
2022/05/22 00:15:17;;;;;;;9.00;5.10;;;18.40;99.90;;;;;;5016812;28;20417;-75
2022/05/22 00:17:45;;;;;;;9.02;5.13;;;18.40;99.90;;;;;;5019553;28;20053;-74
2022/05/22 00:20:13;;;;;;;12.10;5.65;;;18.40;99.90;;;;;;5037947;28;20109;-74
2022/05/22 00:22:42;;;;;;;6.78;5.40;;;18.30;99.90;;;;;;5037613;28;20045;-76
2022/05/22 00:25:11;;;;;;;9.60;6.00;;;18.30;99.90;;;;;;5037111;28;20038;-74
2022/05/22 00:27:40;;;;;;;8.52;6.05;;;18.20;99.90;;;;;;5036367;28;20053;-76
2022/05/22 00:30:09;;;;;;;9.55;6.30;;;18.10;99.90;;;;;;5035371;28;20050;-78
2022/05/22 00:32:38;;;;;;;8.88;6.20;;;18.00;99.90;;;;;;5038731;28;20049;-78
2022/05/22 00:35:07;;;;;;;8.27;5.82;;;17.90;99.90;;;;;;5038228;28;20069;-78
2022/05/22 00:37:39;;;;;;;10.95;5.82;;;17.80;99.90;;;;;;5037794;28;20042;-79
2022/05/22 00:40:07;;;;;;;9.50;6.07;;;17.80;99.90;;;;;;5038253;28;20045;-77
2022/05/22 00:42:35;;;;;;;9.07;5.85;;;17.90;99.90;;;;;;5037024;28;20057;-78
2022/05/22 00:45:06;;;;;;;9.57;5.90;;;17.90;99.90;;;;;;5036394;28;20119;-77
2022/05/22 00:47:34;;;;;;;9.73;6.43;;;17.80;99.90;;;;;;5036790;28;20060;-75
2022/05/22 00:50:05;;;;;;;11.90;6.53;;;17.80;99.90;;;;;;5033883;28;20091;-75
2022/05/22 00:52:38;;;;;;;10.30;5.82;;;17.80;99.90;;;;;;5031138;28;20056;-74
2022/05/22 00:55:09;;;;;;;10.95;6.53;;;17.70;99.90;;;;;;5016458;28;20046;-75
2022/05/22 00:57:42;;;;;;;19.55;12.95;;;17.70;99.90;;;;;;5031203;28;20528;-75
2022/05/22 01:00:13;;;;;;;9.95;6.13;;;17.70;99.90;;;;;;5015906;28;20050;-75
2022/05/22 01:05:30;;;;;;;7.85;5.90;;;17.90;99.90;;;;;;5019890;28;20036;-74
2022/05/22 01:07:58;;;;;;;9.82;6.22;;;17.90;99.90;;;;;;5034756;28;20056;-75
2022/05/22 01:10:33;;;;;;;8.40;5.55;;;17.90;99.90;;;;;;5035779;28;20497;-75
2022/05/22 01:13:02;;;;;;;10.95;6.82;;;17.90;99.90;;;;;;5035503;28;20056;-75
2022/05/22 01:15:29;;;;;;;8.20;6.15;;;17.90;99.90;;;;;;5034024;28;20042;-75
2022/05/22 01:17:57;;;;;;;8.20;5.72;;;17.90;99.90;;;;;;5034215;28;20068;-75
2022/05/22 01:20:25;;;;;;;7.65;5.22;;;17.90;99.90;;;;;;5033984;28;20504;-75
2022/05/22 01:22:54;;;;;;;9.75;5.20;;;17.90;99.90;;;;;;5035157;28;20056;-75
2022/05/22 01:25:21;;;;;;;8.55;5.53;;;17.80;99.90;;;;;;5033724;28;20136;-75
2022/05/22 01:27:50;;;;;;;10.88;5.38;;;17.90;99.90;;;;;;5035612;28;20069;-75
2022/05/22 01:30:26;;;;;;;12.95;5.05;;;17.80;99.90;;;;;;5034333;28;20067;-75
2022/05/22 01:33:05;;;;;;;9.13;4.78;;;17.80;99.90;;;;;;5033475;28;20056;-75
2022/05/22 01:35:32;;;;;;;7.82;4.55;;;17.80;99.90;;;;;;5034099;28;20053;-75
2022/05/22 01:38:08;;;;;;;7.85;4.55;;;17.90;99.90;;;;;;5033865;28;20045;-75
2022/05/22 01:40:41;;;;;;;7.82;4.88;;;18.00;99.90;;;;;;5033311;28;20049;-75
2022/05/22 01:43:10;;;;;;;9.60;4.97;;;18.10;99.90;;;;;;5034707;28;20045;-75
2022/05/22 01:45:42;;;;;;;12.10;5.43;;;18.20;99.90;;;;;;5033798;28;20128;-75
2022/05/22 01:48:11;;;;;;;6.22;4.50;;;18.20;99.90;;;;;;5033590;28;20049;-76
2022/05/22 01:50:46;;;;;;;7.85;4.63;;;18.20;99.90;;;;;;5033784;28;20046;-75
2022/05/22 01:53:16;;;;;;;8.10;4.85;;;18.20;99.90;;;;;;5033587;28;20103;-75
2022/05/22 01:55:46;;;;;;;7.40;4.10;;;18.10;99.90;;;;;;5033462;28;20050;-76
2022/05/22 01:58:15;;;;;;;12.07;5.00;;;18.20;99.90;;;;;;5033222;28;20519;-77
2022/05/22 02:00:44;;;;;;;9.52;4.30;;;18.20;99.90;;;;;;5033108;28;20103;-77
2022/05/22 02:03:12;;;;;;;7.25;4.90;;;18.20;99.90;;;;;;5033126;28;20049;-76
2022/05/22 02:05:40;;;;;;;8.48;4.80;;;18.30;99.90;;;;;;5033232;28;20038;-77
2022/05/22 02:08:22;;;;;;;9.25;4.47;;;18.30;99.90;;;;;;5033407;28;20079;-77
2022/05/22 02:10:56;;;;;;;10.20;4.40;;;18.30;99.90;;;;;;5034862;28;20037;-78
2022/05/22 02:13:27;;;;;;;8.05;4.60;;;18.30;99.90;;;;;;5032800;28;20054;-79
2022/05/22 02:15:54;;;;;;;6.68;4.28;;;18.30;99.90;;;;;;5033753;28;20049;-79
2022/05/22 02:18:22;;;;;;;7.70;4.25;;;18.30;99.90;;;;;;5033468;28;20402;-78
2022/05/22 02:20:50;;;;;;;6.78;4.78;;;18.40;99.90;;;;;;5033654;28;20049;-77
2022/05/22 02:23:19;;;;;;;8.27;4.90;;;18.40;99.90;;;;;;5034299;28;20052;-77
2022/05/22 02:25:49;;;;;;;5.82;4.60;;;18.40;99.90;;;;;;5032626;28;20131;-77
2022/05/22 02:28:20;;;;;;;7.38;5.18;;;18.50;99.90;;;;;;5032491;28;20480;-75
2022/05/22 02:30:51;;;;;;;7.75;4.80;;;18.50;99.90;;;;;;5032472;28;20053;-75
2022/05/22 02:33:19;;;;;;;6.68;4.55;;;18.50;99.90;;;;;;5032368;28;20046;-75
2022/05/22 02:36:00;;;;;;;8.77;4.57;;;18.50;99.90;;;;;;5032475;28;20050;-75
2022/05/22 02:38:35;;;;;;;10.40;4.80;;;18.50;99.90;;;;;;5032247;28;20049;-76
2022/05/22 02:41:10;;;;;;;8.15;5.22;;;18.50;99.90;;;;;;5031969;28;20046;-75
2022/05/22 02:43:40;;;;;;;10.93;4.70;;;18.50;99.90;;;;;;5032166;28;20136;-75
2022/05/22 02:46:10;;;;;;;10.43;5.30;;;18.50;99.90;;;;;;5032386;28;20045;-75
2022/05/22 02:48:38;;;;;;;7.07;4.50;;;18.50;99.90;;;;;;5032372;28;20405;-76
2022/05/22 02:51:10;;;;;;;8.05;5.38;;;18.50;99.90;;;;;;5032249;28;20141;-75
2022/05/22 02:53:37;;;;;;;9.48;5.50;;;18.50;99.90;;;;;;5033587;28;20514;-78
2022/05/22 02:56:18;;;;;;;11.45;5.18;;;18.50;99.90;;;;;;5033514;28;20041;-77
2022/05/22 02:59:05;;;;;;;10.20;5.82;;;18.60;99.90;;;;;;5034136;28;20051;-77
2022/05/22 03:01:45;;;;;;;10.00;5.65;;;18.60;99.90;;;;;;5031931;28;20547;-77
2022/05/22 03:04:12;;;;;;;13.65;6.40;;;18.60;99.90;;;;;;5032179;28;20103;-77
2022/05/22 03:06:40;;;;;;;12.55;5.45;;;18.60;99.90;;;;;;5032358;28;20046;-77
2022/05/22 03:09:10;;;;;;;9.70;5.97;;;18.60;99.90;;;;;;5032773;28;20053;-77
2022/05/22 03:11:38;;;;;;;10.95;5.95;;;18.60;99.90;;;;;;5033616;28;20153;-77
2022/05/22 03:14:08;;;;;;;12.50;6.45;;;18.70;99.90;;;;;;5033553;28;20038;-78
2022/05/22 03:16:36;;;;;;;15.10;6.70;;;18.60;99.90;;;;;;5032075;28;20043;-77
2022/05/22 03:19:27;;;;;;;10.80;4.72;;;18.60;99.90;;;;;;5032731;28;20041;-77
2022/05/22 03:21:54;;;;;;;9.35;5.93;;;18.50;99.90;;;;;;5031862;28;20402;-76
2022/05/22 03:24:22;;;;;;;7.20;3.72;;;18.60;99.90;;;;;;5031943;28;20042;-76
2022/05/22 03:26:51;;;;;;;11.18;4.95;;;18.50;99.90;;;;;;5031980;28;20043;-75
2022/05/22 03:29:20;;;;;;;6.25;3.90;;;18.60;99.90;;;;;;5031900;28;20058;-75
2022/05/22 03:31:51;;;;;;;6.75;3.40;;;18.50;99.90;;;;;;5031809;28;20153;-75
2022/05/22 03:34:18;;;;;;;5.35;3.00;;;18.60;99.90;;;;;;5031663;28;20053;-75
2022/05/22 03:36:51;;;;;;;4.38;2.67;;;18.50;99.90;;;;;;5032079;28;20063;-75
2022/05/22 03:39:19;;;;;;;7.13;3.40;;;18.40;99.90;;;;;;5031737;28;20049;-74
2022/05/22 03:41:47;;;;;;;5.15;3.40;;;18.40;99.90;;;;;;5031485;28;20160;-75
2022/05/22 03:44:17;;;;;;;7.55;4.32;;;18.30;99.90;;;;;;5031541;28;20045;-76
2022/05/22 03:46:50;;;;;;;8.45;4.97;;;18.40;99.90;;;;;;5032793;28;20037;-75
2022/05/22 03:49:23;;;;;;;11.10;5.13;;;18.30;99.90;;;;;;5032046;28;20578;-75
2022/05/22 03:51:54;;;;;;;8.60;4.65;;;18.30;99.90;;;;;;5031756;28;20068;-75
2022/05/22 03:54:23;;;;;;;5.15;3.88;;;18.30;99.90;;;;;;5031277;28;20096;-74
2022/05/22 03:56:56;;;;;;;6.40;3.97;;;18.30;99.90;;;;;;5011937;28;20046;-75
2022/05/22 03:59:27;;;;;;;5.85;3.95;;;18.30;99.90;;;;;;5011761;28;20057;-74
2022/05/22 04:01:57;;;;;;;9.38;4.75;;;18.30;99.90;;;;;;5011560;28;20088;-74
2022/05/22 04:04:25;;;;;;;7.60;4.05;;;18.30;99.90;;;;;;5046624;28;20072;-76
2022/05/22 04:06:53;;;;;;;7.97;4.20;;;18.40;99.90;;;;;;5057137;28;20106;-75
2022/05/22 04:09:29;;;;;;;9.68;4.53;;;18.40;99.90;;;;;;5056981;28;20041;-75
2022/05/22 04:12:15;;;;;;;9.20;5.10;;;18.50;99.90;;;;;;5056824;28;20026;-75
2022/05/22 04:14:46;;;;;;;8.90;5.47;;;18.40;99.90;;;;;;5054639;28;20045;-75
2022/05/22 04:17:16;;;;;;;10.77;7.00;;;18.40;99.90;;;;;;5039065;28;20068;-75
2022/05/22 04:19:44;;;;;;;13.68;7.10;;;18.40;99.90;;;;;;5031334;28;20053;-75
2022/05/22 04:22:14;;;;;;;8.63;5.60;;;18.40;99.90;;;;;;5031376;28;20058;-75
2022/05/22 04:27:31;;;;;;;9.02;5.50;;;18.30;99.90;;;;;;5036350;28;20033;-75
2022/05/22 04:29:59;;;;;;;8.63;5.82;;;18.30;99.90;;;;;;5034348;28;20072;-76
2022/05/22 04:32:35;;;;;;;7.60;5.50;;;18.20;99.90;;;;;;5035064;28;20076;-74
2022/05/22 04:35:03;;;;;;;12.20;5.40;;;18.20;99.90;;;;;;5034837;28;20140;-75
2022/05/22 04:37:32;;;;;;;6.97;5.82;;;18.20;99.90;;;;;;5031217;28;20048;-75
2022/05/22 04:40:01;;;;;;;7.65;5.45;;;18.20;99.90;;;;;;5015508;28;20049;-75
2022/05/22 04:42:34;;;;;;;7.35;4.15;;;18.10;99.90;;;;;;5021645;28;20050;-75
2022/05/22 04:45:06;;;;;;;8.82;4.03;;;18.00;99.90;;;;;;5034601;28;20049;-75
2022/05/22 04:47:45;;;;;;;9.70;4.18;;;17.90;99.90;;;;;;5034751;28;20105;-75
2022/05/22 04:50:46;;;;;;;5.88;4.15;;;17.80;99.90;;;;;;5027053;28;20041;-75
2022/05/22 04:53:31;;;;;;;8.68;4.40;;;17.70;99.90;;;;;;5035647;28;20069;-75
2022/05/22 04:56:01;;;;;;;5.00;3.60;;;17.70;99.90;;;;;;5035810;28;20049;-75
2022/05/22 04:58:35;;;;;;;6.93;3.15;;;17.60;99.90;;;;;;5034308;28;20053;-75
2022/05/22 05:01:11;;;;;;;8.18;3.42;;;17.50;99.90;;;;;;5034337;28;20053;-75
2022/05/22 05:04:03;;;;;;;7.70;3.72;;;17.40;99.90;;;;;;5029635;28;20062;-76
2022/05/22 05:06:44;;;;;;;5.47;3.40;;;17.30;99.90;;;;;;5034430;28;20038;-76
2022/05/22 05:09:32;;;;;;;9.30;3.75;;;17.20;99.90;;;;;;5035166;28;20125;-75
2022/05/22 05:12:01;;;;;;;7.10;3.83;;;17.10;99.90;;;;;;5034320;28;20095;-75
2022/05/22 05:14:31;;;;;;;7.28;4.20;;;17.00;99.90;;;;;;5033958;28;20140;-76
2022/05/22 05:16:59;;;;;;;5.50;4.10;;;17.00;99.90;;;;;;5033739;28;20045;-75
2022/05/22 05:19:29;;;;;;;8.60;4.60;;;17.00;99.90;;;;;;5033955;28;20069;-75
2022/05/22 05:21:58;;;;;;;9.57;4.78;;;17.00;99.90;;;;;;5035009;28;20042;-75
2022/05/22 05:24:25;;;;;;;7.65;4.45;;;16.90;99.90;;;;;;5033364;28;20065;-75
2022/05/22 05:26:55;;;;;;;9.00;4.40;;;17.00;99.90;;;;;;5029400;28;20049;-75
2022/05/22 05:29:23;;;;;;;8.98;4.10;;;16.90;99.90;;;;;;5021223;28;20064;-75
2022/05/22 05:31:50;;;;;;;5.97;4.18;;;16.90;99.90;;;;;;5034183;28;20038;-75
2022/05/22 05:34:19;;;;;;;7.78;4.60;;;17.00;99.90;;;;;;5033850;28;20095;-76
2022/05/22 05:36:54;;;;;;;9.45;5.95;;;17.00;99.90;;;;;;5034688;28;20104;-76
2022/05/22 05:39:36;;;;;;;6.97;5.40;;;17.00;99.90;;;;;;5033857;28;20083;-75
2022/05/22 05:42:11;;;;;;;;;;;17.00;99.90;;;;;;5034242;28;20543;-75
2022/05/22 05:44:39;;;;;;;10.23;7.68;;;17.10;99.90;;;;;;5033782;28;20332;-75
2022/05/22 05:47:27;;;;;;;6.30;5.07;;;17.10;99.90;;;;;;5033846;28;20067;-75
2022/05/22 05:50:14;;;;;;;8.02;5.90;;;17.20;99.90;;;;;;5033251;28;20045;-75
2022/05/22 05:53:02;;;;;;;9.13;4.35;;;17.40;99.90;;;;;;5034969;28;20052;-76
2022/05/22 05:55:47;;;;;;;7.00;4.10;;;17.70;99.90;;;;;;5034866;28;20049;-76
2022/05/22 05:58:33;;;;;;;8.88;4.70;;;18.10;99.90;;;;;;5035295;28;20087;-76
2022/05/22 06:01:33;;;;;;;8.05;4.28;;;18.50;99.90;;;;;;5020404;28;20069;-76
2022/05/22 06:04:02;;;;;;;5.78;4.55;;;18.70;99.90;;;;;;5033078;28;20481;-76
2022/05/22 06:06:30;;;;;;;7.70;3.63;;;18.90;99.90;;;;;;5034172;28;20034;-76
2022/05/22 06:09:01;;;;;;;6.43;3.90;;;18.90;99.90;;;;;;5033092;28;20564;-76
2022/05/22 06:11:43;;;;;;;6.35;4.20;;;18.80;99.90;;;;;;5032401;28;20057;-76
2022/05/22 06:14:22;;;;;;;8.27;4.30;;;18.80;99.90;;;;;;5032686;28;20100;-75
2022/05/22 06:16:50;;;;;;;4.85;3.83;;;18.80;99.90;;;;;;5032915;28;20479;-76
2022/05/22 06:19:53;;;;;;;7.68;4.10;;;18.90;99.90;;;;;;5031494;28;20052;-76
2022/05/22 06:22:09;;;;;;;7.00;3.58;;;18.90;99.90;;;;;;5032845;28;20053;-76
2022/05/22 06:24:39;;;;;;;5.80;3.90;;;19.10;99.90;;;;;;5032129;28;20045;-76
2022/05/22 06:27:26;;;;;;;6.97;3.78;;;19.30;99.90;;;;;;5032563;28;20050;-76
2022/05/22 06:30:12;;;;;;;6.20;4.45;;;19.50;99.90;;;;;;5033094;28;20475;-76
2022/05/22 06:33:16;;;;;;;6.13;3.83;;;19.70;99.90;;;;;;5028353;28;20140;-75
2022/05/22 06:36:10;;;;;;;5.75;3.33;;;19.90;99.90;;;;;;5019919;28;20420;-76
2022/05/22 06:42:13;;;;;;;5.68;2.90;;;20.50;99.90;;;;;;5027183;28;20053;-76
2022/05/22 06:44:55;;;;;;;6.22;3.72;;;20.90;99.90;;;;;;5034042;28;20378;-76
2022/05/22 06:47:36;;;;;;;5.53;3.33;;;21.30;99.90;;;;;;5033552;28;20049;-75
2022/05/22 06:50:25;;;;;;;6.40;3.15;;;21.60;99.90;;;;;;5012586;28;20088;-76
2022/05/22 06:53:16;;;;;;;7.57;3.72;;;21.70;99.90;;;;;;5009303;28;20065;-74
2022/05/22 06:56:02;;;;;;;3.67;2.83;;;21.90;99.90;;;;;;5032257;28;20045;-77
2022/05/22 06:58:37;;;;;;;4.35;2.97;;;22.30;99.90;;;;;;5033172;28;20049;-76
2022/05/22 07:01:10;;;;;;;6.43;3.45;;;22.30;99.90;;;;;;5021506;28;20042;-76
2022/05/22 07:03:57;;;;;;;7.57;3.75;;;22.00;99.90;;;;;;5032581;28;20095;-76
2022/05/22 07:06:48;;;;;;;5.43;3.42;;;21.60;99.90;;;;;;4996108;28;20054;-76
2022/05/22 07:09:16;;;;;;;5.78;4.20;;;21.40;99.90;;;;;;5033234;28;20077;-76
2022/05/22 07:12:02;;;;;;;7.28;4.55;;;21.20;99.90;;;;;;5033358;28;20068;-76
2022/05/22 07:15:00;;;;;;;5.50;4.10;;;21.40;99.90;;;;;;5024151;28;20420;-76
2022/05/22 07:17:48;;;;;;;6.15;3.90;;;21.90;99.90;;;;;;5032790;28;20072;-76
2022/05/22 07:20:38;;;;;;;5.57;3.88;;;22.20;99.90;;;;;;5033992;28;20081;-75
2022/05/22 07:23:06;;;;;;;5.03;3.88;;;22.40;99.90;;;;;;5033532;28;20136;-75
2022/05/22 07:25:41;;;;;;;13.05;4.53;;;22.10;99.90;;;;;;5031933;28;20509;-75
2022/05/22 07:28:16;;;;;;;8.17;4.73;;;22.10;99.90;;;;;;5032639;28;20451;-76
2022/05/22 07:31:26;;;;;;;5.50;4.18;;;22.10;99.90;;;;;;5008675;28;20049;-75
2022/05/22 07:34:19;;;;;;;5.68;4.53;;;22.40;99.90;;;;;;5017248;28;20057;-76
2022/05/22 07:37:20;;;;;;;8.43;4.63;;;22.50;99.90;;;;;;5065607;28;20504;-75
2022/05/22 07:39:51;;;;;;;7.40;4.55;;;22.70;99.90;;;;;;5041255;28;20482;-76
2022/05/22 07:42:40;;;;;;;8.00;4.90;;;22.70;99.90;;;;;;5032445;28;20054;-75
2022/05/22 07:45:26;;;;;;;6.93;4.60;;;22.60;99.90;;;;;;5040010;28;20052;-75
2022/05/22 07:48:18;;;;;;;11.10;5.18;;;22.90;99.90;;;;;;5012206;28;20416;-75
2022/05/22 07:50:57;;;;;;;6.82;4.50;;;23.40;99.90;;;;;;5036750;28;20042;-75
2022/05/22 07:53:50;;;;;;;7.25;4.90;;;23.40;99.90;;;;;;5047693;28;20122;-74
2022/05/22 07:56:39;;;;;;;8.27;4.60;;;23.40;99.90;;;;;;5034066;28;20119;-75
2022/05/22 07:59:27;;;;;;;8.05;4.95;;;23.00;99.90;;;;;;5026722;28;20061;-75
2022/05/22 08:02:18;;;;;;;6.38;4.43;;;22.90;99.90;;;;;;5033610;28;20428;-75
2022/05/22 08:04:51;;;;;;;8.98;4.90;;;22.90;99.90;;;;;;5036127;28;20398;-76
2022/05/22 08:07:21;;;;;;;7.95;5.15;;;23.40;99.90;;;;;;5036871;28;20135;-76
2022/05/22 08:09:57;;;;;;;9.02;5.90;;;23.80;99.90;;;;;;5034602;28;20073;-75
2022/05/22 08:12:26;;;;;;;6.22;4.28;;;24.10;99.90;;;;;;5034576;28;20050;-75
2022/05/22 08:15:09;;;;;;;9.73;4.90;;;24.10;99.90;;;;;;5035607;28;20046;-75
2022/05/22 08:17:37;;;;;;;6.80;4.70;;;24.50;99.90;;;;;;5038440;28;20041;-76
2022/05/22 08:20:12;;;;;;;8.95;4.47;;;24.70;99.90;;;;;;5055203;28;20102;-76
2022/05/22 08:23:06;;;;;;;7.40;4.25;;;24.40;99.90;;;;;;5015563;28;20057;-76
2022/05/22 08:26:00;;;;;;;4.57;3.72;;;24.10;99.90;;;;;;5012488;28;20405;-75
2022/05/22 08:28:29;;;;;;;5.07;4.20;;;23.90;99.90;;;;;;5020313;28;20373;-75
2022/05/22 08:30:57;;;;;;;8.80;6.13;;;23.80;99.90;;;;;;5034687;28;20478;-75
2022/05/22 08:33:26;;;;;;;6.95;4.18;;;23.90;99.90;;;;;;5033864;28;20103;-75
2022/05/22 08:35:55;;;;;;;8.18;5.28;;;24.10;99.90;;;;;;5035821;28;20409;-75
2022/05/22 08:38:22;;;;;;;8.52;4.95;;;24.20;99.90;;;;;;5035725;28;20065;-75
2022/05/22 08:40:58;;;;;;;7.55;4.72;;;24.10;99.90;;;;;;5035928;28;20056;-76
2022/05/22 08:43:33;;;;;;;12.18;5.60;;;24.10;99.90;;;;;;5035958;28;20053;-76
2022/05/22 08:46:08;;;;;;;7.05;4.40;;;24.30;99.90;;;;;;5033856;28;20556;-76
2022/05/22 08:48:41;;;;;;;6.82;4.53;;;24.30;99.90;;;;;;5036084;28;20378;-76
2022/05/22 08:51:17;;;;;;;6.97;4.28;;;24.30;99.90;;;;;;5040291;28;20040;-75
2022/05/22 08:53:49;;;;;;;6.72;4.10;;;24.40;99.90;;;;;;5039377;28;20048;-74
2022/05/22 08:59:09;;;;;;;8.77;4.38;;;24.60;99.90;;;;;;5035687;28;20032;-75
2022/05/22 09:01:51;;;;;;;5.68;4.35;;;24.90;99.90;;;;;;5034818;28;20064;-74
2022/05/22 09:04:39;;;;;;;8.43;4.50;;;24.60;99.90;;;;;;5032097;28;20060;-76
2022/05/22 09:07:30;;;;;;;10.07;3.85;;;24.60;99.90;;;;;;5034074;28;20416;-75
2022/05/22 09:10:03;;;;;;;4.78;3.63;;;24.40;99.90;;;;;;5037268;28;20128;-75
2022/05/22 09:13:00;;;;;;;8.05;3.70;;;23.90;99.90;;;;;;5034300;28;20049;-75
2022/05/22 09:15:34;;;;;;;7.57;4.18;;;23.90;99.90;;;;;;5036767;28;20137;-75
2022/05/22 09:18:09;;;;;;;6.40;4.32;;;24.20;99.90;;;;;;5046857;28;20037;-75
2022/05/22 09:20:46;;;;;;;7.13;4.30;;;24.50;99.90;;;;;;5040970;28;20060;-76
2022/05/22 09:23:34;;;;;;;14.85;4.07;;;24.70;99.90;;;;;;5033759;28;20066;-74
2022/05/22 09:26:08;;;;;;;5.07;3.03;;;24.80;99.90;;;;;;5051244;28;20049;-76
2022/05/22 09:28:50;;;;;;;9.20;3.53;;;24.90;99.90;;;;;;5039817;28;20116;-74
2022/05/22 09:31:26;;;;;;;6.43;3.60;;;25.00;99.90;;;;;;5034840;28;20047;-74
2022/05/22 09:34:04;;;;;;;7.43;3.95;;;24.90;99.90;;;;;;5034645;28;20049;-75
2022/05/22 09:36:42;;;;;;;5.07;3.10;;;25.10;99.90;;;;;;5035309;28;20052;-75
2022/05/22 09:39:24;;;;;;;7.20;3.90;;;25.00;99.90;;;;;;5034682;28;20511;-75
2022/05/22 09:42:03;;;;;;;7.65;3.83;;;24.70;99.90;;;;;;5033252;28;20053;-75
2022/05/22 09:44:50;;;;;;;9.18;5.07;;;24.90;99.90;;;;;;5034355;28;20075;-75
2022/05/22 09:47:45;;;;;;;9.93;6.05;;;25.10;99.90;;;;;;5034710;28;20057;-75
2022/05/22 09:50:21;;;;;;;8.10;4.22;;;25.30;99.90;;;;;;5030577;28;20072;-75
2022/05/22 09:52:53;;;;;;;;;;;25.60;99.90;;;;;;5034491;28;20049;-75
2022/05/22 09:55:30;;;;;;;10.65;3.85;;;25.50;99.90;;;;;;5034219;28;19936;-75
2022/05/22 09:58:29;;;;;;;6.25;3.25;;;25.60;99.90;;;;;;5034299;28;20450;-75
2022/05/22 10:01:02;;;;;;;6.90;3.90;;;25.40;99.90;;;;;;5009875;28;20049;-75
2022/05/22 10:03:41;;;;;;;8.77;3.45;;;25.50;99.90;;;;;;5014561;28;20701;-75
2022/05/22 10:06:16;;;;;;;6.60;3.00;;;25.60;99.90;;;;;;5014631;28;20038;-75
2022/05/22 10:08:53;;;;;;;6.10;3.50;;;25.80;99.90;;;;;;5014383;28;20041;-75
2022/05/22 10:11:27;;;;;;;5.05;4.10;;;25.90;99.90;;;;;;5014315;28;20052;-74
2022/05/22 10:14:13;;;;;;;9.93;4.30;;;26.00;99.90;;;;;;5014263;28;20053;-74
2022/05/22 10:16:48;;;;;;;5.57;2.95;;;26.10;99.90;;;;;;5014334;28;20038;-75
2022/05/22 10:19:28;;;;;;;7.82;5.47;;;26.10;99.90;;;;;;5014396;28;20038;-76
2022/05/22 10:22:08;;;;;;;6.10;3.67;;;26.00;99.90;;;;;;5014511;28;20044;-74
2022/05/22 10:24:58;;;;;;;7.78;3.55;;;26.30;99.90;;;;;;5013764;28;20045;-75
2022/05/22 10:27:52;;;;;;;4.88;3.30;;;26.20;99.90;;;;;;5016144;28;20046;-75
2022/05/22 10:30:25;;;;;;;6.78;3.25;;;26.20;99.90;;;;;;5032447;28;20042;-78
2022/05/22 10:32:59;;;;;;;5.30;3.20;;;26.20;99.90;;;;;;5033856;28;20504;-74
2022/05/22 10:35:30;;;;;;;5.03;2.97;;;26.20;99.90;;;;;;5033989;28;20051;-74
2022/05/22 10:38:05;;;;;;;4.30;2.90;;;25.80;99.90;;;;;;5032541;28;20065;-75
2022/05/22 10:43:15;;;;;;;4.85;3.17;;;25.60;99.90;;;;;;5032970;28;20136;-75
2022/05/22 10:45:43;;;;;;;5.25;2.58;;;26.10;99.90;;;;;;5033585;28;20140;-75
2022/05/22 10:48:13;;;;;;;5.93;2.70;;;26.20;99.90;;;;;;5033546;28;20088;-75
2022/05/22 10:50:53;;;;;;;4.35;2.50;;;26.30;99.90;;;;;;5031906;28;20042;-74
2022/05/22 10:53:31;;;;;;;5.05;2.70;;;26.10;99.90;;;;;;5032542;28;20172;-75
2022/05/22 10:56:02;;;;;;;5.95;3.00;;;25.70;99.90;;;;;;5014053;28;20050;-75
2022/05/22 10:58:33;;;;;;;5.50;3.72;;;25.70;99.90;;;;;;5019252;28;20088;-75
2022/05/22 11:01:05;;;;;;;5.85;4.32;;;26.10;99.90;;;;;;5073496;22;20060;-78
2022/05/22 11:03:34;;;;;;;9.10;3.92;;;26.60;99.90;;;;;;5046630;28;20593;-78
2022/05/22 11:06:15;;;;;;;7.85;3.92;;;26.80;99.90;;;;;;5073628;28;20041;-77
2022/05/22 11:08:49;;;;;;;9.27;5.60;;;27.10;99.90;;;;;;5072416;28;20132;-77
2022/05/22 11:11:19;;;;;;;9.93;5.95;;;27.20;99.90;;;;;;5071330;28;20044;-77
2022/05/22 11:13:48;;;;;;;6.47;3.40;;;27.00;99.90;;;;;;5071969;28;20033;-77
2022/05/22 11:16:25;;;;;;;6.32;2.83;;;27.00;99.90;;;;;;5074209;28;20041;-79
2022/05/22 11:19:06;;;;;;;3.92;3.25;;;27.20;99.90;;;;;;5072112;28;20068;-78
2022/05/22 11:21:37;;;;;;;7.07;5.72;;;27.40;99.90;;;;;;5048474;28;20585;-77
2022/05/22 11:24:15;;;;;;;6.20;3.97;;;27.00;99.90;;;;;;5057466;28;20049;-77
2022/05/22 11:26:57;;;;;;;6.28;2.88;;;27.00;99.90;;;;;;5040255;28;20044;-77
2022/05/22 11:29:55;;;;;;;5.25;2.90;;;26.80;99.90;;;;;;5044285;28;20048;-79
2022/05/22 11:32:34;;;;;;;6.38;4.28;;;26.80;99.90;;;;;;5039526;28;20045;-78
2022/05/22 11:35:38;;;;;;;10.32;7.78;;;26.90;99.90;;;;;;5054724;28;20120;-77
2022/05/22 11:38:41;;;;;;;6.65;4.55;;;27.00;99.90;;;;;;5064202;28;20075;-77
2022/05/22 11:41:22;;;;;;;4.55;2.80;;;27.00;99.90;;;;;;5040177;28;20055;-77
2022/05/22 11:44:14;;;;;;;3.72;2.35;;;27.00;99.90;;;;;;5040104;28;20396;-77
2022/05/22 11:46:54;;;;;;;6.35;3.42;;;26.80;99.90;;;;;;5058411;28;20089;-77
2022/05/22 11:49:33;;;;;;;6.00;3.10;;;26.80;99.90;;;;;;5057873;28;20041;-76
2022/05/22 11:52:53;;;;;;;4.80;3.33;;;26.80;99.90;;;;;;5040631;28;20053;-77
2022/05/22 11:55:14;;;;;;;3.58;2.40;;;26.80;99.90;;;;;;5046114;28;20056;-77
2022/05/22 11:57:53;;;;;;;4.40;3.00;;;26.80;99.90;;;;;;5021156;28;20396;-77
2022/05/22 12:00:25;;;;;;;5.22;2.58;;;26.80;99.90;;;;;;5039319;28;20133;-76
2022/05/22 12:03:11;;;;;;;7.60;6.80;;;26.70;99.90;;;;;;5042252;28;20056;-77
2022/05/22 12:05:44;;;;;;;;;;;26.70;99.90;;;;;;5022281;28;20041;-78
2022/05/22 12:08:32;;;;;;;7.43;4.30;;;26.80;99.90;;;;;;5021039;28;19987;-77
2022/05/22 12:11:06;;;;;;;4.18;3.10;;;26.90;99.90;;;;;;5037417;28;20390;-79
2022/05/22 12:13:40;;;;;;;4.68;2.97;;;26.90;99.90;;;;;;5038453;28;20048;-77
2022/05/22 12:16:11;;;;;;;12.52;10.23;;;26.90;99.90;;;;;;5038813;28;20389;-76
2022/05/22 12:18:53;;;;;;;6.13;3.78;;;27.10;99.90;;;;;;5038063;28;20133;-78
2022/05/22 12:21:28;;;;;;;4.50;2.58;;;26.80;99.90;;;;;;5038016;28;20124;-77
2022/05/22 12:24:01;;;;;;;4.03;2.63;;;26.80;99.90;;;;;;5037662;28;20053;-78
2022/05/22 12:26:31;;;;;;;6.13;2.95;;;26.40;99.90;;;;;;5040074;28;20124;-77
2022/05/22 12:29:03;;;;;;;5.85;2.55;;;26.30;99.90;;;;;;5039390;28;20042;-78
2022/05/22 12:31:34;;;;;;;7.68;5.55;;;26.40;99.90;;;;;;5022622;28;20149;-77
2022/05/22 12:34:10;;;;;;;6.15;3.88;;;26.40;99.90;;;;;;5040416;28;20144;-77
2022/05/22 12:36:42;;;;;;;4.55;2.83;;;26.60;99.90;;;;;;5022961;28;20576;-77
2022/05/22 12:39:11;;;;;;;5.03;3.10;;;26.80;99.90;;;;;;5040901;28;20053;-78
2022/05/22 12:41:56;;;;;;;4.22;2.38;;;27.10;99.90;;;;;;5023844;28;20057;-77
2022/05/22 12:44:28;;;;;;;4.82;3.60;;;27.10;99.90;;;;;;5042112;28;20053;-78
2022/05/22 12:46:57;;;;;;;6.75;3.40;;;27.10;99.90;;;;;;5041696;28;20045;-78
2022/05/22 12:49:28;;;;;;;5.80;3.22;;;27.10;99.90;;;;;;5020864;28;20053;-77
2022/05/22 12:52:01;;;;;;;6.38;4.50;;;27.20;99.90;;;;;;5020616;28;20056;-78
2022/05/22 12:54:31;;;;;;;5.32;3.03;;;27.40;99.90;;;;;;5038879;28;20575;-78
2022/05/22 12:57:15;;;;;;;6.03;2.63;;;27.70;99.90;;;;;;5020807;28;20056;-78
2022/05/22 12:59:53;;;;;;;4.90;2.70;;;27.50;99.90;;;;;;5050429;28;20503;-77
2022/05/22 13:02:44;;;;;;;5.78;2.67;;;27.20;99.90;;;;;;5044523;28;20530;-76
2022/05/22 13:05:27;;;;;;;7.40;2.90;;;27.00;99.90;;;;;;5036987;28;20047;-77
2022/05/22 13:07:55;;;;;;;4.07;2.60;;;27.10;99.90;;;;;;5018911;28;20053;-77
2022/05/22 13:10:30;;;;;;;6.80;3.10;;;26.90;99.90;;;;;;5037667;28;20042;-78
2022/05/22 13:13:00;;;;;;;;;;;26.70;99.90;;;;;;5037624;28;20053;-76
2022/05/22 13:15:30;;;;;;;3.85;2.63;;;26.60;99.90;;;;;;5038100;28;19928;-76
2022/05/22 13:18:12;;;;;;;6.95;3.33;;;26.50;99.90;;;;;;5038959;28;20046;-77
2022/05/22 13:20:51;;;;;;;6.25;3.17;;;26.40;99.90;;;;;;5038016;28;20046;-78
2022/05/22 13:23:28;;;;;;;4.40;3.03;;;26.30;99.90;;;;;;5021511;28;20539;-76
2022/05/22 13:25:58;;;;;;;4.82;3.10;;;26.40;99.90;;;;;;5040758;28;20041;-76
2022/05/22 13:28:28;;;;;;;5.82;3.65;;;26.30;99.90;;;;;;5019548;28;20068;-77
2022/05/22 13:31:01;;;;;;;7.07;3.75;;;26.40;99.90;;;;;;5039661;28;20037;-76
2022/05/22 13:33:30;;;;;;;5.78;3.33;;;26.40;99.90;;;;;;5036632;28;20099;-76
2022/05/22 13:36:02;;;;;;;5.65;3.55;;;26.40;99.90;;;;;;5036639;28;20441;-76
2022/05/22 13:38:31;;;;;;;5.63;3.35;;;26.40;99.90;;;;;;5040243;28;20037;-76
2022/05/22 13:41:18;;;;;;;5.30;3.47;;;26.10;99.90;;;;;;5036224;28;20508;-76
2022/05/22 13:44:20;;;;;;;5.65;3.75;;;26.00;99.90;;;;;;5036054;28;20049;-77